Thursday, August 25, 2016
06:18 UTC
  |  Log In   |  Register Free
Airport Search:

Tyler Pounds Regional Airport
(KTYR)

FAA data valid effective Jul 21 2016 - Sep 15 2016 (unless otherwise noted).

 
 
 
 
 
 
 
 
 
 
 
 
 
 
Current Aviation Weather for KTYR

Weather Summary


The most recent METAR observation for TYR was updated at: 12:58 UTC
METAR for TYR is not available. Closest METAR is for
METAR

METAR KTYR 250553Z 17005KT 10SM CLR 27/24 A3008 RMK AO2 SLP178 T02670244 10328 20267 403390250 50003 TSNO $

METAR KTYR 250453Z 16004KT 10SM CLR 27/24 A3009 RMK AO2 SLP182 T02720244 TSNO $

METAR KTYR 250353Z 15006KT 10SM CLR 28/24 A3009 RMK AO2 SLP179 T02780244 TSNO $

METAR KJDD METAR not available

METAR KJSO 250555Z 20003KT 10SM CLR 26/24 A3011 RMK AO2 T02620243

METAR KJXI 250555Z 00000KT 10SM OVC004 25/24 A3008 RMK AO2 T02500237 10313 20250 403260238

TAF for TYR is not available.
TAF

KTYR - TAF KTYR 250531Z 2506/2606 18006KT P6SM BKN250

KTYR - FM250800 18005KT P6SM BKN025 BKN070

KTYR - TEMPO 2510/2514 6SM BR BKN007

KTYR - FM251400 24007KT P6SM SCT015 BKN250

KTYR - FM251900 22004KT P6SM VCSH OVC045

KTYR - TEMPO 2519/2521 -TSRA BKN040CB

KTYR - FM252200 11006KT P6SM OVC100

KTYR - FM260000 11005KT P6SM BKN250 =

GlobalAir.com is loading additional information.
 Current Weather at TYR
81.0 F° (27.2 C°)

South winds at 4.6 mph
Pressure:
30.09 in
Humidity:
85%
Wind:
South at 4.6 mph
Dew Point:
75.9 F° (24.4 C°)
Visibility:
10.00 mi
TYR NOAA Radar




Find All Airport Services Find A Hotel Find A Rental Car Find A Golf Course Find A Restaurant $100 Hamburger



Airport Weather Forecast for KTYR

Translated METAR for KTYR (0553 UTC)
METAR:
KTYR 250553Z AUTO Tyler Pounds, Tyler, TX (KTYR). Aug 25, 0553Z, Automated. Wind from 170° at 5 knots, 10 statute miles visibility, Clear Skies, Temperature 27°C, Dewpoint 24°C, Altimeter is 30.08. Remarks: automated station with precipitation discriminator sea level pressure 1017.8 hectopascals hourly temp 26.7°C dewpoint 24.4°C 6-hour max temp 32.8°C 6-hour min temp 26.7°C 24-hour max temp 33.9°C 24-hour min temp 25.0°C 3-hour atmospheric pressure increasing, then decreasing (0.3 hectopascal increase) Thunderstorm Information not Available $
Conditions at:
KTYR (Tyler Pounds Rgnl, TX) observed 0553 UTC 25 August 2016
Temperature:
81.0 F° (27.2 C°)
Dewpoint:
not reported - refer to area weather report
Pressure:
30.09 Hg
Winds:
not reported
Visibility:
10.00
Ceiling:
at least 12,000 feet AGL
Clouds:
not reported - refer to area weather report
Remarks:
site is un-manned
SOME DATA ABOVE MAY BE INACCURATE!!!
"$" is an indication the sensor requires maintenance

Translated TAF for TAF for TYR is not available. Refer to local area forecast.
FBO's on the Field
FBO Company Facility Photos Services Transportation Aviation Fuel Prices: Prices include tax
Catering Weather Repair Courtesy Rental Type 100LL JetA JetA+ MOGAS 8087
 
Jet Center of Tyler

Currently rated 5 by 2 people
FS:Phillips 66
Last Updated: Aug-23
Login to update fuel prices
SS:
Contact Jet Center of TylerMore FBO Information
 
Johnson Aviation, Inc

Currently rated 5 by 3 people
FS:Avfuel
Last Updated: Aug-24
Login to update fuel prices
SS:
Contact Johnson Aviation, IncMore FBO Information
 
Add another FBO Facility Photos Catering Weather Repair Courtesy Rental Type 100LL JetA JetA+ MOGAS 8087
Services Transportation Aviation Fuel Prices: Prices include tax


model-print
model-print
model-print
model-print